createdAt,value
2022-08-02T00:00:22.536Z,21.69
2022-08-02T00:02:50.317Z,21.68
2022-08-02T00:05:18.164Z,21.66
2022-08-02T00:07:47.332Z,21.64
2022-08-02T00:10:15.125Z,21.60
2022-08-02T00:12:42.927Z,21.62
2022-08-02T00:15:16.360Z,21.59
2022-08-02T00:17:44.899Z,21.55
2022-08-02T00:20:15.811Z,21.57
2022-08-02T00:22:43.604Z,21.56
2022-08-02T00:25:12.803Z,21.54
2022-08-02T00:27:40.550Z,21.53
2022-08-02T00:30:09.328Z,21.51
2022-08-02T00:32:37.117Z,21.50
2022-08-02T00:35:05.586Z,21.49
2022-08-02T00:37:33.383Z,21.47
2022-08-02T00:40:02.190Z,21.46
2022-08-02T00:42:31.393Z,21.44
2022-08-02T00:44:59.423Z,21.42
2022-08-02T00:47:27.169Z,21.41
2022-08-02T00:49:54.960Z,21.40
2022-08-02T00:52:23.643Z,21.38
2022-08-02T00:54:51.840Z,21.35
2022-08-02T00:57:19.679Z,21.36
2022-08-02T00:59:49.072Z,21.34
2022-08-02T01:02:17.376Z,21.34
2022-08-02T01:04:45.475Z,21.33
2022-08-02T01:07:14.482Z,21.19
2022-08-02T01:09:43.206Z,21.16
2022-08-02T01:12:12.115Z,21.29
2022-08-02T01:14:41.984Z,21.28
2022-08-02T01:17:16.846Z,21.26
2022-08-02T01:19:52.528Z,21.26
2022-08-02T01:23:00.649Z,21.25
2022-08-02T01:25:46.024Z,21.23
2022-08-02T01:28:29.566Z,21.19
2022-08-02T01:31:02.289Z,21.21
2022-08-02T01:33:36.541Z,21.07
2022-08-02T01:36:06.208Z,21.16
2022-08-02T01:38:40.186Z,21.17
2022-08-02T01:41:10.764Z,21.15
2022-08-02T01:43:43.553Z,21.12
2022-08-02T01:46:13.871Z,21.13
2022-08-02T01:48:43.554Z,21.11
2022-08-02T01:51:14.466Z,21.09
2022-08-02T01:53:46.297Z,21.08
2022-08-02T01:56:15.508Z,21.06
2022-08-02T01:58:47.120Z,21.05
2022-08-02T02:01:18.453Z,21.03
2022-08-02T02:03:48.760Z,21.02
2022-08-02T02:06:18.049Z,21.00
2022-08-02T02:08:46.401Z,20.99
2022-08-02T02:12:12.171Z,20.98
2022-08-02T02:14:04.695Z,20.95
2022-08-02T02:16:34.619Z,20.93
2022-08-02T02:19:04.582Z,20.91
2022-08-02T02:21:32.512Z,20.91
2022-08-02T02:24:03.139Z,20.90
2022-08-02T02:26:33.151Z,20.88
2022-08-02T02:29:04.556Z,20.85
2022-08-02T02:31:36.627Z,20.71
2022-08-02T02:34:06.918Z,20.85
2022-08-02T02:36:35.867Z,20.82
2022-08-02T02:39:13.113Z,20.82
2022-08-02T02:41:43.524Z,20.79
2022-08-02T02:44:17.408Z,20.77
2022-08-02T02:46:46.110Z,20.43
2022-08-02T02:49:16.224Z,20.76
2022-08-02T02:51:45.800Z,20.74
2022-08-02T02:54:32.786Z,20.73
2022-08-02T02:57:03.563Z,20.71
2022-08-02T02:59:34.133Z,20.69
2022-08-02T03:02:03.467Z,20.69
2022-08-02T03:04:55.307Z,20.66
2022-08-02T03:07:20.901Z,20.66
2022-08-02T03:09:54.614Z,20.65
2022-08-02T03:12:30.203Z,20.64
2022-08-02T03:15:01.401Z,20.64
2022-08-02T03:17:42.609Z,20.63
2022-08-02T03:20:14.240Z,20.62
2022-08-02T03:22:42.891Z,20.60
2022-08-02T03:25:12.035Z,20.59
2022-08-02T03:27:40.167Z,20.58
2022-08-02T03:30:11.756Z,20.58
2022-08-02T03:32:42.164Z,20.56
2022-08-02T03:35:12.413Z,20.54
2022-08-02T03:37:41.601Z,20.54
2022-08-02T03:40:12.226Z,20.54
2022-08-02T03:42:41.488Z,20.51
2022-08-02T03:45:13.803Z,20.52
2022-08-02T03:47:42.789Z,20.49
2022-08-02T03:50:13.346Z,20.47
2022-08-02T03:52:42.801Z,20.46
2022-08-02T03:55:11.716Z,20.44
2022-08-02T03:57:40.263Z,20.44
2022-08-02T04:00:11.667Z,20.42
2022-08-02T04:02:39.519Z,20.41
2022-08-02T04:05:07.815Z,20.40
2022-08-02T04:08:33.017Z,20.38
2022-08-02T04:10:23.548Z,20.37
2022-08-02T04:12:51.662Z,20.35
2022-08-02T04:15:21.045Z,20.33
2022-08-02T04:17:51.892Z,20.33
2022-08-02T04:20:22.483Z,20.32
2022-08-02T04:22:59.556Z,20.30
2022-08-02T04:25:35.563Z,20.30
2022-08-02T04:28:16.500Z,20.27
2022-08-02T04:30:47.211Z,20.27
2022-08-02T04:33:16.065Z,20.24
2022-08-02T04:35:44.572Z,20.23
2022-08-02T04:38:14.626Z,20.23
2022-08-02T04:40:50.767Z,20.23
2022-08-02T04:43:18.576Z,20.22
2022-08-02T04:45:49.464Z,20.21
2022-08-02T04:48:17.290Z,20.20
2022-08-02T04:50:45.185Z,20.18
2022-08-02T04:53:13.082Z,20.19
2022-08-02T04:55:40.928Z,20.18
2022-08-02T04:58:24.126Z,20.17
2022-08-02T05:00:58.112Z,20.15
2022-08-02T05:03:25.930Z,20.15
2022-08-02T05:05:53.704Z,20.14
2022-08-02T05:08:21.462Z,20.13
2022-08-02T05:10:49.250Z,20.13
2022-08-02T05:13:17.047Z,20.11
2022-08-02T05:15:44.957Z,20.13
2022-08-02T05:18:14.273Z,20.11
2022-08-02T05:20:42.286Z,20.12
2022-08-02T05:23:10.108Z,20.12
2022-08-02T05:25:37.888Z,20.12
2022-08-02T05:28:09.601Z,20.13
2022-08-02T05:30:39.406Z,20.15
2022-08-02T05:33:07.304Z,20.16
2022-08-02T05:35:36.720Z,20.18
2022-08-02T05:38:04.578Z,20.17
2022-08-02T05:40:54.517Z,20.16
2022-08-02T05:43:23.368Z,20.19
2022-08-02T05:45:53.483Z,20.21
2022-08-02T05:48:21.620Z,20.04
2022-08-02T05:50:56.403Z,20.23
2022-08-02T05:53:30.097Z,20.23
2022-08-02T05:56:08.523Z,20.25
2022-08-02T05:58:41.730Z,20.27
2022-08-02T06:01:12.902Z,20.27
2022-08-02T06:03:46.848Z,20.27
2022-08-02T06:06:18.088Z,20.26
2022-08-02T06:08:49.168Z,20.26
2022-08-02T06:11:22.023Z,20.26
2022-08-02T06:13:50.219Z,20.25
2022-08-02T06:16:18.199Z,20.26
2022-08-02T06:19:01.337Z,20.05
2022-08-02T06:22:33.087Z,20.11
2022-08-02T06:24:20.416Z,20.26
2022-08-02T06:26:52.777Z,20.24
2022-08-02T06:29:23.327Z,20.26
2022-08-02T06:31:52.635Z,20.25
2022-08-02T06:34:20.396Z,20.27
2022-08-02T06:36:55.736Z,20.15
2022-08-02T06:39:33.723Z,20.29
2022-08-02T06:42:08.745Z,20.28
2022-08-02T06:44:48.543Z,20.33
2022-08-02T06:47:18.698Z,20.34
2022-08-02T06:49:52.361Z,20.38
2022-08-02T06:52:28.752Z,20.40
2022-08-02T06:55:02.147Z,20.25
2022-08-02T06:57:31.044Z,20.42
2022-08-02T07:00:01.739Z,20.42
2022-08-02T07:02:30.420Z,20.28
2022-08-02T07:04:58.303Z,20.43
2022-08-02T07:07:27.966Z,20.42
2022-08-02T07:10:00.640Z,20.44
2022-08-02T07:12:31.294Z,20.43
2022-08-02T07:14:59.608Z,20.43
2022-08-02T07:17:27.771Z,20.46
2022-08-02T07:19:55.811Z,20.47
2022-08-02T07:22:26.820Z,20.48
2022-08-02T07:24:57.722Z,20.49
2022-08-02T07:27:25.829Z,20.49
2022-08-02T07:29:54.224Z,20.49
2022-08-02T07:32:23.601Z,20.50
2022-08-02T07:34:53.089Z,20.49
2022-08-02T07:37:35.426Z,20.48
2022-08-02T07:40:15.188Z,20.38
2022-08-02T07:42:48.247Z,20.46
2022-08-02T07:45:16.110Z,20.60
2022-08-02T07:47:45.366Z,20.60
2022-08-02T07:50:15.947Z,20.60
2022-08-02T07:52:44.837Z,20.60
2022-08-02T07:55:15.638Z,20.61
2022-08-02T07:57:46.554Z,20.61
2022-08-02T08:00:17.213Z,20.62
2022-08-02T08:02:45.657Z,20.62
2022-08-02T08:05:14.073Z,20.64
2022-08-02T08:07:42.056Z,20.64
2022-08-02T08:10:11.042Z,20.67
2022-08-02T08:12:40.265Z,20.67
2022-08-02T08:15:08.895Z,20.69
2022-08-02T08:17:36.652Z,20.70
2022-08-02T08:20:05.808Z,20.72
2022-08-02T08:22:33.704Z,20.73
2022-08-02T08:25:01.459Z,20.73
2022-08-02T08:27:29.418Z,20.77
2022-08-02T08:29:58.635Z,20.78
2022-08-02T08:32:27.073Z,20.79
2022-08-02T08:34:54.901Z,20.81
2022-08-02T08:37:22.718Z,20.83
2022-08-02T08:39:57.129Z,20.84
2022-08-02T08:42:27.109Z,20.86
2022-08-02T08:44:56.165Z,20.91
2022-08-02T08:47:33.796Z,20.92
2022-08-02T08:50:04.531Z,20.93
2022-08-02T08:52:37.018Z,20.92
2022-08-02T08:55:06.146Z,20.98
2022-08-02T08:57:38.211Z,21.00
2022-08-02T09:00:07.157Z,21.01
2022-08-02T09:02:37.452Z,21.04
2022-08-02T09:05:05.938Z,21.07
2022-08-02T09:07:33.727Z,21.09
2022-08-02T09:10:01.547Z,21.11
2022-08-02T09:12:29.603Z,21.15
2022-08-02T09:14:58.112Z,21.16
2022-08-02T09:17:25.932Z,21.18
2022-08-02T09:20:09.768Z,21.21
2022-08-02T09:22:37.680Z,21.16
2022-08-02T09:25:06.273Z,21.27
2022-08-02T09:27:37.225Z,21.30
2022-08-02T09:30:13.129Z,21.33
2022-08-02T09:32:49.855Z,21.37
2022-08-02T09:38:15.244Z,21.40
2022-08-02T09:40:44.343Z,21.46
2022-08-02T09:43:12.286Z,21.50
2022-08-02T09:45:40.147Z,21.53
2022-08-02T09:48:09.459Z,21.54
2022-08-02T09:50:37.875Z,21.61
2022-08-02T09:53:05.747Z,21.64
2022-08-02T09:55:37.336Z,21.69
2022-08-02T09:58:18.341Z,21.73
2022-08-02T10:00:56.466Z,21.77
2022-08-02T10:03:25.330Z,21.83
2022-08-02T10:06:04.357Z,21.88
2022-08-02T10:08:33.892Z,21.92
2022-08-02T10:11:03.502Z,21.97
2022-08-02T10:13:32.953Z,22.02
2022-08-02T10:16:02.525Z,22.05
2022-08-02T10:18:40.275Z,22.09
2022-08-02T10:21:12.743Z,22.12
2022-08-02T10:23:43.581Z,22.09
2022-08-02T10:26:16.099Z,22.16
2022-08-02T10:28:46.850Z,22.21
2022-08-02T10:31:18.183Z,22.26
2022-08-02T10:33:50.289Z,22.26
2022-08-02T10:36:20.219Z,22.38
2022-08-02T10:38:48.420Z,22.43
2022-08-02T10:41:47.671Z,22.48
2022-08-02T10:44:29.647Z,22.50
2022-08-02T10:47:23.723Z,22.53
2022-08-02T10:49:53.226Z,22.55
2022-08-02T10:52:22.011Z,22.59
2022-08-02T10:54:56.349Z,22.63
2022-08-02T10:57:27.480Z,22.65
2022-08-02T10:59:57.821Z,22.72
2022-08-02T11:02:37.307Z,22.77
2022-08-02T11:05:16.577Z,22.81
2022-08-02T11:07:47.588Z,22.86
2022-08-02T11:10:38.592Z,22.88
2022-08-02T11:13:10.510Z,22.90
2022-08-02T11:15:57.003Z,22.99
2022-08-02T11:19:06.816Z,23.03
2022-08-02T11:21:35.856Z,23.10
2022-08-02T11:24:25.568Z,23.12
2022-08-02T11:26:54.021Z,23.13
2022-08-02T11:29:23.315Z,23.15
2022-08-02T11:31:51.096Z,23.17
2022-08-02T11:34:36.398Z,23.16
2022-08-02T11:37:05.585Z,23.24
2022-08-02T11:39:33.402Z,23.31
2022-08-02T11:42:02.276Z,23.36
2022-08-02T11:44:40.199Z,23.39
2022-08-02T11:47:08.419Z,23.41
2022-08-02T11:49:38.489Z,23.49
2022-08-02T11:52:08.098Z,23.54
2022-08-02T11:54:37.918Z,23.60
2022-08-02T11:57:20.206Z,23.64
2022-08-02T11:59:51.802Z,23.68
2022-08-02T12:02:20.704Z,23.73
2022-08-02T12:04:54.652Z,23.81
2022-08-02T12:07:34.807Z,23.87
2022-08-02T12:10:06.916Z,23.92
2022-08-02T12:12:35.092Z,23.95
2022-08-02T12:15:04.392Z,23.94
2022-08-02T12:17:49.735Z,23.98
2022-08-02T12:20:17.625Z,24.04
2022-08-02T12:22:45.465Z,24.10
2022-08-02T12:25:35.540Z,24.18
2022-08-02T12:28:18.143Z,24.24
2022-08-02T12:31:08.658Z,24.28
2022-08-02T12:33:46.434Z,24.30
2022-08-02T12:36:17.992Z,24.35
2022-08-02T12:58:24.859Z,24.56
2022-08-02T13:00:54.112Z,24.56
2022-08-02T13:04:09.109Z,24.59
2022-08-02T13:06:40.690Z,24.62
2022-08-02T13:08:59.917Z,24.66
2022-08-02T13:11:28.345Z,24.66
2022-08-02T13:13:57.424Z,24.70
2022-08-02T13:16:30.780Z,24.72
2022-08-02T13:18:59.264Z,24.73
2022-08-02T13:21:40.947Z,24.76
2022-08-02T13:24:32.779Z,24.78
2022-08-02T13:27:04.436Z,24.80
2022-08-02T13:29:34.246Z,24.84
2022-08-02T13:32:01.915Z,24.85
2022-08-02T13:34:29.801Z,24.91
2022-08-02T13:36:57.537Z,24.94
2022-08-02T13:39:25.377Z,24.95
2022-08-02T13:41:53.049Z,24.97
2022-08-02T13:44:20.731Z,25.01
2022-08-02T13:46:49.777Z,25.04
2022-08-02T13:49:19.809Z,25.05
2022-08-02T13:51:48.504Z,25.08
2022-08-02T13:54:16.423Z,25.13
2022-08-02T13:56:44.429Z,25.17
2022-08-02T13:59:26.324Z,25.19
2022-08-02T14:02:01.530Z,25.22
2022-08-02T14:04:30.667Z,25.21
2022-08-02T14:06:59.236Z,25.24
2022-08-02T14:09:27.261Z,25.27
2022-08-02T14:11:55.045Z,25.31
2022-08-02T14:14:22.773Z,25.35
2022-08-02T14:16:50.467Z,25.39
2022-08-02T14:19:21.762Z,25.44
2022-08-02T14:21:49.487Z,25.46
2022-08-02T14:24:17.750Z,25.49
2022-08-02T14:26:46.066Z,25.54
2022-08-02T14:29:14.108Z,25.54
2022-08-02T14:31:44.774Z,25.57
2022-08-02T14:34:13.076Z,25.60
2022-08-02T14:36:42.314Z,25.67
2022-08-02T14:39:10.367Z,25.72
2022-08-02T14:42:00.249Z,25.73
2022-08-02T14:44:25.818Z,25.71
2022-08-02T14:46:53.759Z,25.72
2022-08-02T14:49:24.849Z,25.74
2022-08-02T14:51:55.918Z,25.77
2022-08-02T14:54:27.677Z,25.76
2022-08-02T14:56:58.823Z,25.82
2022-08-02T14:59:26.607Z,25.88
2022-08-02T15:01:54.603Z,25.93
2022-08-02T15:04:22.363Z,25.95
2022-08-02T15:06:50.046Z,25.96
2022-08-02T15:09:19.072Z,25.96
2022-08-02T15:11:47.420Z,25.97
2022-08-02T15:14:20.327Z,25.97
2022-08-02T15:16:57.122Z,25.96
2022-08-02T15:19:54.639Z,26.01
2022-08-02T15:22:16.509Z,26.02
2022-08-02T15:24:48.137Z,26.03
2022-08-02T15:27:16.638Z,26.04
2022-08-02T15:29:45.411Z,26.08
2022-08-02T15:32:14.118Z,26.09
2022-08-02T15:34:42.085Z,26.23
2022-08-02T15:37:09.973Z,26.31
2022-08-02T15:39:37.909Z,26.38
2022-08-02T15:42:07.113Z,26.43
2022-08-02T15:44:34.951Z,26.39
2022-08-02T15:47:02.702Z,26.38
2022-08-02T15:49:30.445Z,26.36
2022-08-02T15:51:58.186Z,26.34
2022-08-02T15:54:25.856Z,26.32
2022-08-02T15:56:53.558Z,26.27
2022-08-02T15:59:22.625Z,26.25
2022-08-02T16:01:50.360Z,26.26
2022-08-02T16:04:18.141Z,26.26
2022-08-02T16:06:46.074Z,26.26
2022-08-02T16:09:13.806Z,26.27
2022-08-02T16:11:41.685Z,26.30
2022-08-02T16:14:09.575Z,26.31
2022-08-02T16:16:40.236Z,26.30
2022-08-02T16:19:46.547Z,26.30
2022-08-02T16:21:56.270Z,26.35
2022-08-02T16:24:24.014Z,26.37
2022-08-02T16:26:51.709Z,26.38
2022-08-02T16:29:19.849Z,26.38
2022-08-02T16:31:49.171Z,26.37
2022-08-02T16:34:17.426Z,26.35
2022-08-02T16:36:45.411Z,26.33
2022-08-02T16:39:13.111Z,26.32
2022-08-02T16:41:50.909Z,26.32
2022-08-02T16:44:30.463Z,26.32
2022-08-02T16:47:01.478Z,26.32
2022-08-02T16:50:05.152Z,26.32
2022-08-02T16:52:18.975Z,26.28
2022-08-02T16:54:49.817Z,26.26
2022-08-02T16:57:19.656Z,26.26
2022-08-02T16:59:57.963Z,26.25
2022-08-02T17:02:28.180Z,26.23
2022-08-02T17:04:56.762Z,26.25
2022-08-02T17:08:07.108Z,26.25
2022-08-02T17:10:12.552Z,26.26
2022-08-02T17:12:41.194Z,26.27
2022-08-02T17:16:16.068Z,26.28
2022-08-02T17:18:01.139Z,26.28
2022-08-02T17:20:30.234Z,26.29
2022-08-02T17:23:00.788Z,26.31
2022-08-02T17:25:28.863Z,26.30
2022-08-02T17:27:59.883Z,26.32
2022-08-02T17:30:29.047Z,26.32
2022-08-02T17:32:57.655Z,26.31
2022-08-02T17:35:51.955Z,26.30
2022-08-02T17:38:25.876Z,26.26
2022-08-02T17:40:54.662Z,26.28
2022-08-02T17:43:22.397Z,26.29
2022-08-02T17:46:01.928Z,26.31
2022-08-02T17:48:54.970Z,26.29
2022-08-02T17:51:33.232Z,26.26
2022-08-02T17:54:12.429Z,26.25
2022-08-02T17:56:42.645Z,26.24
2022-08-02T17:59:12.250Z,26.24
2022-08-02T18:01:52.529Z,26.20
2022-08-02T18:04:26.823Z,26.21
2022-08-02T18:06:59.610Z,26.20
2022-08-02T18:09:32.844Z,26.20
2022-08-02T18:12:02.361Z,26.16
2022-08-02T18:14:30.385Z,26.18
2022-08-02T18:16:58.743Z,26.18
2022-08-02T18:19:42.602Z,26.17
2022-08-02T18:22:16.126Z,26.16
2022-08-02T18:24:44.978Z,26.16
2022-08-02T18:27:13.041Z,26.14
2022-08-02T18:29:40.744Z,26.11
2022-08-02T18:32:11.610Z,26.12
2022-08-02T18:34:39.688Z,26.10
2022-08-02T18:37:07.974Z,26.09
2022-08-02T18:39:38.538Z,26.07
2022-08-02T18:42:06.565Z,26.07
2022-08-02T18:44:34.266Z,26.08
2022-08-02T18:47:02.858Z,26.08
2022-08-02T18:49:45.947Z,26.08
2022-08-02T18:52:15.306Z,26.09
2022-08-02T18:54:44.635Z,26.08
2022-08-02T18:58:17.788Z,26.01
2022-08-02T19:00:00.738Z,26.07
2022-08-02T19:02:28.936Z,26.06
2022-08-02T19:04:57.039Z,26.05
2022-08-02T19:07:25.314Z,26.05
2022-08-02T19:10:14.366Z,26.04
2022-08-02T19:12:42.073Z,26.03
2022-08-02T19:15:16.970Z,26.03
2022-08-02T19:17:53.691Z,25.99
2022-08-02T19:20:24.032Z,26.02
2022-08-02T19:22:53.605Z,26.01
2022-08-02T19:25:27.729Z,26.00
2022-08-02T19:27:56.089Z,26.00
2022-08-02T19:30:25.651Z,26.00
2022-08-02T19:32:59.659Z,25.99
2022-08-02T19:35:30.830Z,25.98
2022-08-02T19:38:09.289Z,25.97
2022-08-02T19:40:41.494Z,25.97
2022-08-02T19:44:23.315Z,25.95
2022-08-02T19:45:58.104Z,25.94
2022-08-02T19:48:27.173Z,25.95
2022-08-02T19:51:00.521Z,25.93
2022-08-02T19:53:46.659Z,25.92
2022-08-02T19:56:20.494Z,25.92
2022-08-02T19:58:50.324Z,25.91
2022-08-02T20:01:26.941Z,25.85
2022-08-02T20:04:05.594Z,25.88
2022-08-02T20:06:33.299Z,25.87
2022-08-02T20:09:01.649Z,25.86
2022-08-02T20:11:34.641Z,25.85
2022-08-02T20:14:04.843Z,25.83
2022-08-02T20:16:33.282Z,25.83
2022-08-02T20:19:02.407Z,25.81
2022-08-02T20:21:36.520Z,25.79
2022-08-02T20:24:07.268Z,25.76
2022-08-02T20:26:38.147Z,25.74
2022-08-02T20:29:06.172Z,25.74
2022-08-02T20:31:36.263Z,25.71
2022-08-02T20:34:05.546Z,25.69
2022-08-02T20:36:35.095Z,25.67
2022-08-02T20:39:02.874Z,25.66
2022-08-02T20:41:37.101Z,25.64
2022-08-02T20:44:16.025Z,25.60
2022-08-02T20:46:59.229Z,25.58
2022-08-02T20:49:41.452Z,25.55
2022-08-02T20:52:23.840Z,25.53
2022-08-02T20:54:52.325Z,25.51
2022-08-02T20:57:20.088Z,25.46
2022-08-02T21:00:10.519Z,25.46
2022-08-02T21:02:38.334Z,25.43
2022-08-02T21:05:17.285Z,25.42
2022-08-02T21:07:47.863Z,25.41
2022-08-02T21:10:21.493Z,25.40
2022-08-02T21:12:52.000Z,25.40
2022-08-02T21:15:21.128Z,25.39
2022-08-02T21:17:51.840Z,25.36
2022-08-02T21:20:29.648Z,25.39
2022-08-02T21:22:58.152Z,25.40
2022-08-02T21:25:50.547Z,25.38
2022-08-02T21:31:03.711Z,25.38
2022-08-02T21:33:58.220Z,25.35
2022-08-02T21:36:19.052Z,25.34
2022-08-02T21:38:46.772Z,25.34
2022-08-02T21:41:15.873Z,25.32
2022-08-02T21:43:47.418Z,25.30
2022-08-02T21:46:16.629Z,25.30
2022-08-02T21:48:44.581Z,25.28
2022-08-02T21:51:15.695Z,25.28
2022-08-02T21:53:43.827Z,25.28
2022-08-02T21:56:31.520Z,25.26
2022-08-02T21:59:00.049Z,25.25
2022-08-02T22:01:33.933Z,25.25
2022-08-02T22:04:01.845Z,25.22
2022-08-02T22:06:29.577Z,25.22
2022-08-02T22:08:57.274Z,25.20
2022-08-02T22:11:25.037Z,25.15
2022-08-02T22:13:53.611Z,25.21
2022-08-02T22:16:22.817Z,25.21
2022-08-02T22:21:46.830Z,25.19
2022-08-02T22:24:30.037Z,25.18
2022-08-02T22:26:58.395Z,25.17
2022-08-02T22:29:26.203Z,25.15
2022-08-02T22:31:53.886Z,25.13
2022-08-02T22:34:37.081Z,25.11
2022-08-02T22:38:14.714Z,25.11
2022-08-02T22:40:05.979Z,25.09
2022-08-02T22:42:40.142Z,25.08
2022-08-02T22:45:09.701Z,25.03
2022-08-02T22:47:38.702Z,25.05
2022-08-02T22:50:20.516Z,25.03
2022-08-02T22:52:50.370Z,25.03
2022-08-02T22:55:18.448Z,25.01
2022-08-02T22:57:56.309Z,24.99
2022-08-02T22:59:02.780Z,25.39
2022-08-02T23:00:25.172Z,24.96
2022-08-02T23:02:53.209Z,24.96
2022-08-02T23:05:22.541Z,24.94
2022-08-02T23:07:50.281Z,24.91
2022-08-02T23:10:18.038Z,24.89
2022-08-02T23:12:45.711Z,24.88
2022-08-02T23:15:13.404Z,24.86
2022-08-02T23:17:59.244Z,24.84
2022-08-02T23:20:28.340Z,24.83
2022-08-02T23:22:56.042Z,24.82
2022-08-02T23:25:24.175Z,24.80
2022-08-02T23:27:52.157Z,24.78
2022-08-02T23:30:20.091Z,24.77
2022-08-02T23:32:47.936Z,24.78
2022-08-02T23:35:16.648Z,24.77
2022-08-02T23:37:59.267Z,24.77
2022-08-02T23:40:39.572Z,24.75
2022-08-02T23:43:14.212Z,24.71
2022-08-02T23:45:44.954Z,24.74
2022-08-02T23:48:12.685Z,24.72
2022-08-02T23:50:40.678Z,24.70
2022-08-02T23:53:09.717Z,24.63
2022-08-02T23:55:37.418Z,24.69
2022-08-02T23:58:05.126Z,24.68
